• Join FlightAware (Why Join?)
  • Login
  • US Flag 
04:47PM EDT


 

Airport Tracker/Info


-or-


 

Live Flight TrackerFlight Track Log ✈ N518Q ✈ 28-Apr-2013 ✈ KRKD - KCDW

Flight Track Log - Related Links

Times and Time Zones

All times are in EDT time to prevent confusion due to time zone crossing. See the N518Q flight status page for this flight to view local times or setup timezone preferences in your user account.

Time Position Orientation Groundspeed Altitude Reporting Facility
EDT Latitude Longitude Course Direction KTS MPH feet Rate Location/Type
06:15PM 43.8975 -69.4217 235° Southwest  Level FlightAware Approximate
06:16PM 43.8707 -69.4772 237° Southwest  Level FlightAware Approximate
06:17PM 43.8447 -69.5334 237° Southwest  Level FlightAware Approximate
06:18PM 43.8186 -69.5895 237° Southwest  Level FlightAware Approximate
06:19PM 43.7925 -69.6455 237° Southwest  Level FlightAware Approximate
06:20PM 43.7663 -69.7016 237° Southwest  Level FlightAware Approximate
06:21PM 43.7402 -69.7575 237° Southwest  Level FlightAware Approximate
06:22PM 43.7140 -69.8134 237° Southwest  Level FlightAware Approximate
06:23PM 43.6878 -69.8693 237° Southwest  Level FlightAware Approximate
06:24PM 43.6615 -69.9251 237° Southwest  Level FlightAware Approximate
06:25PM 43.6353 -69.9809 237° Southwest  Level FlightAware Approximate
06:26PM 43.6090 -70.0366 237° Southwest  Level FlightAware Approximate
06:27PM 43.5826 -70.0922 237° Southwest  Level FlightAware Approximate
06:28PM 43.5563 -70.1479 237° Southwest  Level FlightAware Approximate
06:29PM 43.5299 -70.2034 237° Southwest  Level FlightAware Approximate
06:30PM 43.5035 -70.2590 237° Southwest  Level FlightAware Approximate
06:31PM 43.4771 -70.3144 237° Southwest  Level FlightAware Approximate
06:32PM 43.4506 -70.3699 237° Southwest  Level FlightAware Approximate
06:33PM 43.4241 -70.4252 237° Southwest  Level FlightAware Approximate
06:33PM 43.4000 -70.4667 236° Southwest 180 207 8,000  Level KA90
06:34PM 43.3976 -70.4806 237° Southwest  Level FlightAware Approximate
06:34PM 43.3667 -70.5167 227° Southwest 180 207 8,000  Level KA90
06:35PM 43.3711 -70.5359 237° Southwest  Level FlightAware Approximate
06:35PM 43.3333 -70.5833 236° Southwest 181 208 8,000  Level KA90
06:36PM 43.3445 -70.5911 237° Southwest  Level FlightAware Approximate
06:36PM 43.3167 -70.6333 245° Southwest 181 208 8,000  Level KA90
06:37PM 43.3179 -70.6463 236° Southwest  Level FlightAware Approximate
06:37PM 43.2833 -70.7000 236° Southwest 182 209 8,000  Level KA90
06:38PM 43.2911 -70.7012 236° Southwest  Level FlightAware Approximate
06:38PM 43.2667 -70.7500 245° Southwest 181 208 8,000  Level KA90
06:39PM 43.2639 -70.7558 236° Southwest  Level FlightAware Approximate
06:39PM 43.2333 -70.8167 236° Southwest 181 208 8,000  Level KA90
06:40PM 43.2000 -70.8667 228° Southwest 179 206 8,000  Level KA90
06:41PM 43.1833 -70.9333 251° West 179 206 8,000  Level KA90
06:42PM 43.1500 -70.9833 228° Southwest 179 206 8,000  Level KA90
06:43PM 43.1167 -71.0333 228° Southwest 179 206 8,000  Level KA90
06:44PM 43.1000 -71.1000 251° West 178 205 8,000  Level KA90
06:45PM 43.0667 -71.1500 228° Southwest 177 204 8,000  Level KA90
06:46PM 43.0500 -71.2167 251° West 176 203 8,000  Level KA90
06:47PM 43.0167 -71.2667 228° Southwest 173 199 8,000  Level KA90
06:48PM 42.9833 -71.3167 228° Southwest 171 197 8,000  Level KA90
06:49PM 42.9667 -71.3667 246° West 170 196 8,000  Level KA90
06:50PM 42.9333 -71.4333 236° Southwest 168 193 8,000  Level KA90
06:51PM 42.9167 -71.4833 246° West 167 192 8,000  Level KA90
06:53PM 42.8681 -71.5761 234° Southwest 171 197 8,000  Level Boston Center
06:54PM 42.8456 -71.6217 236° Southwest 171 197 8,000  Level Boston Center
06:55PM 42.8167 -71.6814 237° Southwest 166 191 8,000  Level Boston Center
06:56PM 42.7919 -71.7300 235° Southwest 166 191 8,000  Level Boston Center
06:57PM 42.7633 -71.7869 236° Southwest 172 198 8,000  Level Boston Center
06:58PM 42.7406 -71.8350 237° Southwest 172 198 8,000  Level Boston Center
06:59PM 42.7011 -71.8806 220° Southwest 172 198 8,000  Level Boston Center
07:00PM 42.6617 -71.9008 201° Southwest 178 205 8,000  Level Boston Center
07:01PM 42.6097 -71.9267 200° South 178 205 8,000  Level Boston Center
07:02PM 42.5661 -71.9467 199° South 183 211 8,000  Level Boston Center
07:03PM 42.5350 -71.9667 205° Southwest 181 208 8,000  Level Boston Center
07:03PM 42.5161 -71.9753 199° South 188 216 8,000  Level Boston Center
07:04PM 42.4933 -71.9925 209° Southwest 180 207 8,000  Level Boston Center
07:04PM 42.4744 -71.9981 192° South 188 216 8,000  Level Boston Center
07:05PM 42.4475 -72.0208 212° Southwest 183 211 8,000  Level Boston Center
07:05PM 42.4247 -72.0350 205° Southwest 188 216 8,000  Level Boston Center
07:06PM 42.4061 -72.0550 218° Southwest 185 213 8,000  Level Boston Center
07:06PM 42.3853 -72.0664 202° Southwest 194 223 8,000  Level Boston Center
07:07PM 42.3622 -72.0861 212° Southwest 184 212 8,000  Level Boston Center
07:07PM 42.3394 -72.0975 200° South 194 223 8,000  Level Boston Center
07:08PM 42.3144 -72.1256 220° Southwest 183 211 8,000  Level Boston Center
07:08PM 42.2978 -72.1453 221° Southwest 188 216 8,000  Level Boston Center
07:09PM 42.2750 -72.1650 213° Southwest 186 214 8,000  Level Boston Center
07:09PM 42.2583 -72.1792 212° Southwest 188 216 8,000  Level Boston Center
07:10PM 42.2333 -72.2044 217° Southwest 186 214 8,000  Level Boston Center
07:10PM 42.2147 -72.2269 222° Southwest 188 216 8,000  Level Boston Center
07:10PM 42.1961 -72.2467 218° Southwest 185 213 8,000  Level Boston Center
07:11PM 42.1772 -72.2692 221° Southwest 188 216 8,000  Level Boston Center
07:11PM 42.1564 -72.2944 222° Southwest 187 215 8,000  Level Boston Center
07:12PM 42.1356 -72.3197 222° Southwest 193 222 8,000  Level Boston Center
07:13PM 42.1169 -72.3394 218° Southwest 186 214 8,000  Level Boston Center
07:13PM 42.0981 -72.3589 217° Southwest 187 215 8,000  Level Boston Center
07:14PM 42.0794 -72.3814 222° Southwest 187 215 8,000  Level Boston Center
07:14PM 42.0564 -72.4067 219° Southwest 187 215 8,000  Level Boston Center
07:15PM 42.0189 -72.4456 218° Southwest 187 215 8,000  Level Boston Center
07:15PM 42.0003 -72.4653 218° Southwest 184 212 8,000  Level Boston Center
07:16PM 41.9731 -72.4958 220° Southwest 187 215 8,000  Level Boston Center
07:16PM 41.9586 -72.5072 210° Southwest 188 216 8,000  Level Boston Center
07:17PM 41.9378 -72.5322 222° Southwest 187 215 8,000  Level Boston Center
07:17PM 41.9169 -72.5572 222° Southwest 187 215 8,000  Level Boston Center
07:18PM 41.8731 -72.6047 219° Southwest 190 219 8,000  Level Boston Center
07:19PM 41.8333 -72.6464 218° Southwest 190 219 8,000  Level Boston Center
07:21PM 41.7894 -72.6961 220° Southwest 188 216 8,000  Level Boston Center
07:22PM 41.7414 -72.7183 199° South 187 215 8,000  Level Boston Center
07:23PM 41.6831 -72.7236 184° South 187 215 8,000 -360 Level Boston Center
07:25PM 41.6223 -72.8062 225° Southwest  Level FlightAware Approximate
07:26PM 41.5500 -72.7667 225° Southwest 191 220 6,600  Level New York TRACON
07:27PM 41.5167 -72.8167 228° Southwest 188 216 6,100 -360 Descending New York TRACON
07:28PM 41.5000 -72.8833 252° West 175 201 6,000 -60 Descending New York TRACON
07:29PM 41.4833 -72.9500 252° West 170 196 6,000  Level New York TRACON
07:30PM 41.4667 -73.0000 246° West 177 204 6,000  Level New York TRACON
07:31PM 41.4500 -73.0667 252° West 178 205 6,000  Level New York TRACON
07:33PM 41.4167 -73.1833 249° West 177 204 6,000  Level New York TRACON
07:35PM 41.3733 -73.2946 243° Southwest  Level FlightAware Approximate
07:37PM 41.3333 -73.4167 266° West 180 207 6,000  Level New York TRACON
07:38PM 41.3167 -73.4833 252° West 178 205 6,000  Level New York TRACON
07:39PM 41.3000 -73.5500 252° West 178 205 6,000  Level New York TRACON
07:40PM 41.2833 -73.6000 246° West 178 205 6,000 -60 Level New York TRACON
07:42PM 41.2593 -73.7090 266° West  Level FlightAware Approximate
07:42PM 41.2689 -73.7237 261° West  Level FlightAware Approximate
07:43PM 41.2667 -73.8000 261° West 171 197 5,800  Level New York TRACON
07:45PM 41.2500 -73.9167 259° West 154 177 5,000 -300 Descending New York TRACON
07:46PM 41.2500 -73.9667 270° West 141 162 4,900 -420 Descending New York TRACON
07:47PM 41.2333 -74.0167 246° West 151 174 4,200 -480 Descending New York TRACON
07:48PM 41.2333 -74.0833 270° West 154 177 4,000 -300 Descending New York TRACON
07:50PM 41.2197 -74.2060 262° West  Level FlightAware Approximate
07:51PM 41.1333 -74.1333 262° West 116 133 3,000  Level New York TRACON
07:52PM 41.1000 -74.1500 201° Southwest 114 131 3,000 -120 Level New York TRACON
07:53PM 41.0833 -74.1667 217° Southwest 123 142 2,800 -420 Descending New York TRACON
07:54PM 41.0333 -74.1667 180° South 144 166 2,200 -600 Descending New York TRACON